sensor_id;sensor_type;location;lat;lon;timestamp;noise_LAeq;noise_LA_min;noise_LA_max;noise_LA01;noise_LA95
72686;Laerm;61365;52.162;4.500;2023-02-15T00:01:52;47.81;34.84;57.65;;
72686;Laerm;61365;52.162;4.500;2023-02-15T00:04:22;47.69;37.18;58.64;;
72686;Laerm;61365;52.162;4.500;2023-02-15T00:06:50;47.53;36.46;57.81;;
72686;Laerm;61365;52.162;4.500;2023-02-15T00:09:17;47.31;36.39;57.73;;
72686;Laerm;61365;52.162;4.500;2023-02-15T00:11:43;47.33;37.45;58.87;;
72686;Laerm;61365;52.162;4.500;2023-02-15T00:14:24;47.16;37.22;58.36;;
72686;Laerm;61365;52.162;4.500;2023-02-15T00:16:52;47.52;35.17;64.18;;
72686;Laerm;61365;52.162;4.500;2023-02-15T00:19:21;47.19;36.21;58.92;;
72686;Laerm;61365;52.162;4.500;2023-02-15T00:21:48;47.15;36.49;62.96;;
72686;Laerm;61365;52.162;4.500;2023-02-15T00:24:18;47.60;36.79;58.16;;
72686;Laerm;61365;52.162;4.500;2023-02-15T00:26:47;48.01;35.38;58.11;;
72686;Laerm;61365;52.162;4.500;2023-02-15T00:29:16;47.70;34.98;58.92;;
72686;Laerm;61365;52.162;4.500;2023-02-15T00:31:43;47.23;37.10;59.50;;
72686;Laerm;61365;52.162;4.500;2023-02-15T00:34:24;47.27;36.83;58.45;;
72686;Laerm;61365;52.162;4.500;2023-02-15T00:36:52;47.30;37.32;58.71;;
72686;Laerm;61365;52.162;4.500;2023-02-15T00:39:19;47.38;37.07;58.38;;
72686;Laerm;61365;52.162;4.500;2023-02-15T00:41:46;47.22;36.85;58.71;;
72686;Laerm;61365;52.162;4.500;2023-02-15T00:44:14;47.12;36.41;56.97;;
72686;Laerm;61365;52.162;4.500;2023-02-15T00:46:41;47.14;37.10;58.74;;
72686;Laerm;61365;52.162;4.500;2023-02-15T00:49:07;47.73;36.71;58.26;;
72686;Laerm;61365;52.162;4.500;2023-02-15T00:51:34;47.98;36.26;58.45;;
72686;Laerm;61365;52.162;4.500;2023-02-15T00:54:00;47.09;36.17;58.32;;
72686;Laerm;61365;52.162;4.500;2023-02-15T00:56:27;47.70;36.31;57.82;;
72686;Laerm;61365;52.162;4.500;2023-02-15T00:58:54;47.65;36.98;58.02;;
72686;Laerm;61365;52.162;4.500;2023-02-15T01:01:21;45.51;37.52;58.31;;
72686;Laerm;61365;52.162;4.500;2023-02-15T01:03:48;45.61;37.53;58.16;;
72686;Laerm;61365;52.162;4.500;2023-02-15T01:06:16;45.56;37.71;60.03;;
72686;Laerm;61365;52.162;4.500;2023-02-15T01:08:44;45.80;35.92;60.04;;
72686;Laerm;61365;52.162;4.500;2023-02-15T01:11:16;45.47;37.55;59.54;;
72686;Laerm;61365;52.162;4.500;2023-02-15T01:13:54;45.56;37.26;62.53;;
72686;Laerm;61365;52.162;4.500;2023-02-15T01:16:22;45.56;37.38;58.26;;
72686;Laerm;61365;52.162;4.500;2023-02-15T01:18:49;45.61;37.47;58.47;;
72686;Laerm;61365;52.162;4.500;2023-02-15T01:21:20;45.59;37.24;60.57;;
72686;Laerm;61365;52.162;4.500;2023-02-15T01:23:47;45.58;37.98;58.25;;
72686;Laerm;61365;52.162;4.500;2023-02-15T01:26:15;45.37;36.86;58.48;;
72686;Laerm;61365;52.162;4.500;2023-02-15T01:28:41;45.67;37.47;60.80;;
72686;Laerm;61365;52.162;4.500;2023-02-15T01:31:14;45.59;37.67;60.19;;
72686;Laerm;61365;52.162;4.500;2023-02-15T01:33:41;45.84;37.39;59.85;;
72686;Laerm;61365;52.162;4.500;2023-02-15T01:36:07;45.77;37.36;61.30;;
72686;Laerm;61365;52.162;4.500;2023-02-15T01:38:35;45.76;37.90;59.57;;
72686;Laerm;61365;52.162;4.500;2023-02-15T01:41:01;45.51;37.35;59.19;;
72686;Laerm;61365;52.162;4.500;2023-02-15T01:43:53;46.82;36.58;58.77;;
72686;Laerm;61365;52.162;4.500;2023-02-15T01:46:31;46.32;36.47;62.91;;
72686;Laerm;61365;52.162;4.500;2023-02-15T01:49:12;45.62;36.80;58.70;;
72686;Laerm;61365;52.162;4.500;2023-02-15T01:51:43;45.61;37.28;58.41;;
72686;Laerm;61365;52.162;4.500;2023-02-15T01:54:21;45.68;37.25;58.15;;
72686;Laerm;61365;52.162;4.500;2023-02-15T01:56:50;45.49;37.07;59.80;;
72686;Laerm;61365;52.162;4.500;2023-02-15T01:59:21;45.64;37.74;60.20;;
72686;Laerm;61365;52.162;4.500;2023-02-15T02:01:53;45.71;37.40;59.16;;
72686;Laerm;61365;52.162;4.500;2023-02-15T02:04:32;45.61;37.83;58.17;;
72686;Laerm;61365;52.162;4.500;2023-02-15T02:07:02;46.32;37.12;58.46;;
72686;Laerm;61365;52.162;4.500;2023-02-15T02:09:30;45.78;37.42;59.84;;
72686;Laerm;61365;52.162;4.500;2023-02-15T02:11:56;45.75;37.34;58.48;;
72686;Laerm;61365;52.162;4.500;2023-02-15T02:14:24;45.61;37.55;59.27;;
72686;Laerm;61365;52.162;4.500;2023-02-15T02:25:38;47.73;36.24;57.90;;
72686;Laerm;61365;52.162;4.500;2023-02-15T02:44:53;45.68;37.55;59.71;;
72686;Laerm;61365;52.162;4.500;2023-02-15T02:47:50;45.60;37.04;59.27;;
72686;Laerm;61365;52.162;4.500;2023-02-15T02:50:25;45.61;37.38;58.50;;
72686;Laerm;61365;52.162;4.500;2023-02-15T02:52:55;45.69;37.58;62.02;;
72686;Laerm;61365;52.162;4.500;2023-02-15T02:55:46;45.57;37.50;57.99;;
72686;Laerm;61365;52.162;4.500;2023-02-15T03:01:06;45.72;36.81;58.98;;
72686;Laerm;61365;52.162;4.500;2023-02-15T03:03:44;45.69;36.65;64.75;;
72686;Laerm;61365;52.162;4.500;2023-02-15T03:06:30;45.62;37.63;59.18;;
72686;Laerm;61365;52.162;4.500;2023-02-15T03:09:09;45.55;37.04;58.70;;
72686;Laerm;61365;52.162;4.500;2023-02-15T03:11:44;45.69;37.73;58.36;;
72686;Laerm;61365;52.162;4.500;2023-02-15T03:14:14;45.50;37.28;58.47;;
72686;Laerm;61365;52.162;4.500;2023-02-15T03:16:47;45.43;37.56;59.19;;
72686;Laerm;61365;52.162;4.500;2023-02-15T03:19:23;45.77;37.63;58.78;;
72686;Laerm;61365;52.162;4.500;2023-02-15T03:21:58;47.03;36.53;59.62;;
72686;Laerm;61365;52.162;4.500;2023-02-15T03:24:46;47.26;37.36;58.98;;
72686;Laerm;61365;52.162;4.500;2023-02-15T03:27:21;47.18;36.63;58.65;;
72686;Laerm;61365;52.162;4.500;2023-02-15T03:29:58;47.21;36.69;59.62;;
72686;Laerm;61365;52.162;4.500;2023-02-15T03:32:30;47.19;36.65;58.69;;
72686;Laerm;61365;52.162;4.500;2023-02-15T03:34:59;47.14;36.81;58.50;;
72686;Laerm;61365;52.162;4.500;2023-02-15T03:37:57;47.21;37.14;59.92;;
72686;Laerm;61365;52.162;4.500;2023-02-15T03:40:41;47.16;37.33;58.69;;
72686;Laerm;61365;52.162;4.500;2023-02-15T03:49:08;45.81;37.51;58.50;;
72686;Laerm;61365;52.162;4.500;2023-02-15T03:51:40;45.67;37.16;58.70;;
72686;Laerm;61365;52.162;4.500;2023-02-15T03:54:27;45.53;36.98;60.54;;
72686;Laerm;61365;52.162;4.500;2023-02-15T04:00:21;45.68;37.68;58.67;;
72686;Laerm;61365;52.162;4.500;2023-02-15T04:03:32;45.80;37.97;59.68;;
72686;Laerm;61365;52.162;4.500;2023-02-15T04:06:02;45.63;37.29;58.86;;
72686;Laerm;61365;52.162;4.500;2023-02-15T04:08:29;45.56;37.86;58.44;;
72686;Laerm;61365;52.162;4.500;2023-02-15T04:11:13;45.77;37.24;60.28;;
72686;Laerm;61365;52.162;4.500;2023-02-15T04:13:40;45.60;37.40;59.35;;
72686;Laerm;61365;52.162;4.500;2023-02-15T04:16:07;45.62;37.36;59.76;;
72686;Laerm;61365;52.162;4.500;2023-02-15T04:18:40;45.62;37.70;58.50;;
72686;Laerm;61365;52.162;4.500;2023-02-15T04:21:28;45.61;37.69;58.39;;
72686;Laerm;61365;52.162;4.500;2023-02-15T04:24:14;45.82;37.18;59.89;;
72686;Laerm;61365;52.162;4.500;2023-02-15T04:27:00;45.73;37.65;58.84;;
72686;Laerm;61365;52.162;4.500;2023-02-15T04:29:27;45.64;37.51;58.17;;
72686;Laerm;61365;52.162;4.500;2023-02-15T04:31:58;45.54;37.28;59.24;;
72686;Laerm;61365;52.162;4.500;2023-02-15T04:34:26;45.64;37.36;59.73;;
72686;Laerm;61365;52.162;4.500;2023-02-15T04:36:52;45.65;37.64;59.72;;
72686;Laerm;61365;52.162;4.500;2023-02-15T04:39:19;45.73;37.54;60.34;;
72686;Laerm;61365;52.162;4.500;2023-02-15T04:41:45;45.55;37.74;58.80;;
72686;Laerm;61365;52.162;4.500;2023-02-15T04:44:12;45.60;37.36;58.52;;
72686;Laerm;61365;52.162;4.500;2023-02-15T04:46:38;45.68;36.85;59.72;;
72686;Laerm;61365;52.162;4.500;2023-02-15T04:49:05;45.66;37.70;59.48;;
72686;Laerm;61365;52.162;4.500;2023-02-15T04:51:31;45.53;37.56;60.21;;
72686;Laerm;61365;52.162;4.500;2023-02-15T04:53:57;45.65;37.44;58.72;;
72686;Laerm;61365;52.162;4.500;2023-02-15T04:56:24;45.59;37.54;58.25;;
72686;Laerm;61365;52.162;4.500;2023-02-15T04:58:50;45.85;37.50;59.15;;
72686;Laerm;61365;52.162;4.500;2023-02-15T05:01:17;45.65;37.43;60.41;;
72686;Laerm;61365;52.162;4.500;2023-02-15T05:03:43;45.64;37.41;59.57;;
72686;Laerm;61365;52.162;4.500;2023-02-15T05:06:10;45.53;37.63;59.11;;
72686;Laerm;61365;52.162;4.500;2023-02-15T05:08:36;45.48;37.58;59.27;;
72686;Laerm;61365;52.162;4.500;2023-02-15T05:11:02;45.52;37.31;59.23;;
72686;Laerm;61365;52.162;4.500;2023-02-15T05:13:29;45.70;37.22;58.18;;
72686;Laerm;61365;52.162;4.500;2023-02-15T05:15:55;45.65;37.38;60.38;;
72686;Laerm;61365;52.162;4.500;2023-02-15T05:18:24;45.48;37.50;59.35;;
72686;Laerm;61365;52.162;4.500;2023-02-15T05:20:50;45.33;37.47;57.89;;
72686;Laerm;61365;52.162;4.500;2023-02-15T05:23:16;45.61;37.40;59.19;;
72686;Laerm;61365;52.162;4.500;2023-02-15T05:25:48;45.56;37.27;58.81;;
72686;Laerm;61365;52.162;4.500;2023-02-15T05:28:33;45.60;37.60;59.18;;
72686;Laerm;61365;52.162;4.500;2023-02-15T05:31:10;45.60;37.47;58.15;;
72686;Laerm;61365;52.162;4.500;2023-02-15T05:33:38;45.52;37.08;58.37;;
72686;Laerm;61365;52.162;4.500;2023-02-15T05:36:06;45.38;37.40;58.33;;
72686;Laerm;61365;52.162;4.500;2023-02-15T05:38:33;45.51;37.34;58.63;;
72686;Laerm;61365;52.162;4.500;2023-02-15T05:41:00;45.56;37.41;59.91;;
72686;Laerm;61365;52.162;4.500;2023-02-15T05:43:26;45.49;37.61;58.02;;
72686;Laerm;61365;52.162;4.500;2023-02-15T05:45:54;45.56;37.41;58.53;;
72686;Laerm;61365;52.162;4.500;2023-02-15T05:48:25;45.56;37.50;59.07;;
72686;Laerm;61365;52.162;4.500;2023-02-15T05:51:07;45.65;37.33;59.65;;
72686;Laerm;61365;52.162;4.500;2023-02-15T05:53:37;45.50;37.45;58.39;;
72686;Laerm;61365;52.162;4.500;2023-02-15T05:56:06;45.63;37.51;60.02;;
72686;Laerm;61365;52.162;4.500;2023-02-15T05:58:37;45.55;37.17;59.70;;
72686;Laerm;61365;52.162;4.500;2023-02-15T06:01:16;45.44;37.50;58.93;;
72686;Laerm;61365;52.162;4.500;2023-02-15T06:03:44;45.68;37.05;61.77;;
72686;Laerm;61365;52.162;4.500;2023-02-15T06:06:11;45.65;37.66;58.51;;
72686;Laerm;61365;52.162;4.500;2023-02-15T06:08:39;45.57;36.73;59.35;;
72686;Laerm;61365;52.162;4.500;2023-02-15T06:11:06;45.54;37.59;59.12;;
72686;Laerm;61365;52.162;4.500;2023-02-15T06:13:33;45.37;37.48;59.29;;
72686;Laerm;61365;52.162;4.500;2023-02-15T06:16:00;45.63;37.62;58.69;;
72686;Laerm;61365;52.162;4.500;2023-02-15T06:18:27;45.59;37.47;59.76;;
72686;Laerm;61365;52.162;4.500;2023-02-15T06:20:53;45.62;37.39;60.27;;
72686;Laerm;61365;52.162;4.500;2023-02-15T06:23:19;45.82;37.45;61.43;;
72686;Laerm;61365;52.162;4.500;2023-02-15T06:25:46;47.77;36.50;59.03;;
72686;Laerm;61365;52.162;4.500;2023-02-15T06:28:13;47.18;37.23;59.36;;
72686;Laerm;61365;52.162;4.500;2023-02-15T06:30:39;47.08;37.33;58.10;;
72686;Laerm;61365;52.162;4.500;2023-02-15T06:33:06;47.10;36.80;59.58;;
72686;Laerm;61365;52.162;4.500;2023-02-15T06:35:32;47.27;35.94;58.61;;
72686;Laerm;61365;52.162;4.500;2023-02-15T06:37:58;47.28;36.75;58.43;;
72686;Laerm;61365;52.162;4.500;2023-02-15T06:40:25;47.14;36.96;58.38;;
72686;Laerm;61365;52.162;4.500;2023-02-15T06:42:51;47.15;37.21;59.58;;
72686;Laerm;61365;52.162;4.500;2023-02-15T06:45:17;47.30;36.65;59.87;;
72686;Laerm;61365;52.162;4.500;2023-02-15T06:47:44;47.25;36.89;58.50;;
72686;Laerm;61365;52.162;4.500;2023-02-15T06:50:10;47.58;36.70;61.29;;
72686;Laerm;61365;52.162;4.500;2023-02-15T06:52:37;47.25;36.62;59.73;;
72686;Laerm;61365;52.162;4.500;2023-02-15T06:55:04;47.30;36.94;59.61;;
72686;Laerm;61365;52.162;4.500;2023-02-15T06:57:30;47.15;36.12;58.77;;
72686;Laerm;61365;52.162;4.500;2023-02-15T06:59:58;47.56;35.57;58.33;;
72686;Laerm;61365;52.162;4.500;2023-02-15T07:02:25;47.60;36.87;58.00;;
72686;Laerm;61365;52.162;4.500;2023-02-15T07:04:52;47.56;35.69;58.69;;
72686;Laerm;61365;52.162;4.500;2023-02-15T07:07:18;47.52;36.54;57.94;;
72686;Laerm;61365;52.162;4.500;2023-02-15T07:09:45;47.48;36.66;58.39;;
72686;Laerm;61365;52.162;4.500;2023-02-15T07:12:11;46.08;36.03;61.49;;
72686;Laerm;61365;52.162;4.500;2023-02-15T07:14:56;45.67;37.23;59.86;;
72686;Laerm;61365;52.162;4.500;2023-02-15T07:17:24;46.00;37.16;60.15;;
72686;Laerm;61365;52.162;4.500;2023-02-15T07:19:54;45.68;37.09;59.64;;
72686;Laerm;61365;52.162;4.500;2023-02-15T07:22:21;45.96;36.47;59.09;;
72686;Laerm;61365;52.162;4.500;2023-02-15T07:24:47;47.56;36.20;58.21;;
72686;Laerm;61365;52.162;4.500;2023-02-15T07:27:15;46.05;36.53;58.81;;
72686;Laerm;61365;52.162;4.500;2023-02-15T07:29:41;45.54;37.75;59.10;;
72686;Laerm;61365;52.162;4.500;2023-02-15T07:32:08;45.59;37.32;58.68;;
72686;Laerm;61365;52.162;4.500;2023-02-15T07:34:34;45.37;37.10;58.32;;
72686;Laerm;61365;52.162;4.500;2023-02-15T07:37:01;45.38;36.86;58.11;;
72686;Laerm;61365;52.162;4.500;2023-02-15T07:39:27;45.63;36.61;64.55;;
72686;Laerm;61365;52.162;4.500;2023-02-15T07:41:53;45.51;37.62;58.38;;
72686;Laerm;61365;52.162;4.500;2023-02-15T07:44:19;45.40;37.61;61.21;;
72686;Laerm;61365;52.162;4.500;2023-02-15T07:46:46;45.53;37.44;58.11;;
72686;Laerm;61365;52.162;4.500;2023-02-15T07:49:12;45.54;37.78;58.54;;
72686;Laerm;61365;52.162;4.500;2023-02-15T07:51:39;45.58;37.51;58.21;;
72686;Laerm;61365;52.162;4.500;2023-02-15T07:54:06;45.50;37.12;60.54;;
72686;Laerm;61365;52.162;4.500;2023-02-15T07:56:33;45.52;37.65;58.09;;
72686;Laerm;61365;52.162;4.500;2023-02-15T07:58:59;45.39;37.16;58.90;;
72686;Laerm;61365;52.162;4.500;2023-02-15T08:01:37;45.50;36.94;58.82;;
72686;Laerm;61365;52.162;4.500;2023-02-15T08:04:06;45.55;37.10;58.36;;
72686;Laerm;61365;52.162;4.500;2023-02-15T08:06:35;45.54;37.52;59.05;;
72686;Laerm;61365;52.162;4.500;2023-02-15T08:09:07;45.75;36.74;59.23;;
72686;Laerm;61365;52.162;4.500;2023-02-15T08:11:37;45.59;37.36;59.03;;
72686;Laerm;61365;52.162;4.500;2023-02-15T08:16:45;45.35;37.49;58.45;;
72686;Laerm;61365;52.162;4.500;2023-02-15T08:22:07;45.64;37.71;58.81;;
72686;Laerm;61365;52.162;4.500;2023-02-15T08:24:36;45.55;34.85;64.41;;
72686;Laerm;61365;52.162;4.500;2023-02-15T08:27:04;45.41;37.55;60.20;;
72686;Laerm;61365;52.162;4.500;2023-02-15T08:29:32;45.34;37.73;58.30;;
72686;Laerm;61365;52.162;4.500;2023-02-15T08:32:04;45.60;37.60;59.48;;
72686;Laerm;61365;52.162;4.500;2023-02-15T08:34:36;45.45;37.44;58.93;;
72686;Laerm;61365;52.162;4.500;2023-02-15T08:37:03;45.38;37.48;58.76;;
72686;Laerm;61365;52.162;4.500;2023-02-15T08:39:30;45.45;37.43;57.41;;
72686;Laerm;61365;52.162;4.500;2023-02-15T08:41:56;45.53;37.77;60.05;;
72686;Laerm;61365;52.162;4.500;2023-02-15T08:44:24;45.61;37.45;58.44;;
72686;Laerm;61365;52.162;4.500;2023-02-15T08:46:50;45.65;37.14;58.26;;
72686;Laerm;61365;52.162;4.500;2023-02-15T08:49:20;45.60;37.59;59.07;;
72686;Laerm;61365;52.162;4.500;2023-02-15T08:51:48;45.56;37.88;60.33;;
72686;Laerm;61365;52.162;4.500;2023-02-15T08:54:20;46.44;36.53;58.24;;
72686;Laerm;61365;52.162;4.500;2023-02-15T08:56:48;47.79;36.15;57.73;;
72686;Laerm;61365;52.162;4.500;2023-02-15T08:59:20;48.04;35.58;58.26;;
72686;Laerm;61365;52.162;4.500;2023-02-15T09:01:49;47.99;36.26;59.28;;
72686;Laerm;61365;52.162;4.500;2023-02-15T09:04:17;47.92;35.94;58.25;;
72686;Laerm;61365;52.162;4.500;2023-02-15T09:06:46;48.05;36.53;57.08;;
72686;Laerm;61365;52.162;4.500;2023-02-15T09:09:14;48.14;36.05;58.87;;
72686;Laerm;61365;52.162;4.500;2023-02-15T09:11:43;48.08;36.27;56.71;;
72686;Laerm;61365;52.162;4.500;2023-02-15T09:14:14;48.10;36.58;58.30;;
72686;Laerm;61365;52.162;4.500;2023-02-15T09:16:44;47.97;36.44;58.26;;
72686;Laerm;61365;52.162;4.500;2023-02-15T09:19:12;47.90;36.29;57.40;;
72686;Laerm;61365;52.162;4.500;2023-02-15T09:21:39;47.56;36.44;59.92;;
72686;Laerm;61365;52.162;4.500;2023-02-15T09:24:12;45.70;35.38;64.36;;
72686;Laerm;61365;52.162;4.500;2023-02-15T09:26:42;45.53;36.92;58.31;;
72686;Laerm;61365;52.162;4.500;2023-02-15T09:29:12;45.69;37.74;58.38;;
72686;Laerm;61365;52.162;4.500;2023-02-15T09:31:49;45.77;37.76;59.08;;
72686;Laerm;61365;52.162;4.500;2023-02-15T09:34:20;45.68;37.13;57.86;;
72686;Laerm;61365;52.162;4.500;2023-02-15T09:36:47;45.67;37.83;58.99;;
72686;Laerm;61365;52.162;4.500;2023-02-15T09:39:19;45.66;37.63;60.13;;
72686;Laerm;61365;52.162;4.500;2023-02-15T09:53:00;46.32;36.26;58.46;;
72686;Laerm;61365;52.162;4.500;2023-02-15T10:06:59;45.41;36.83;57.21;;
72686;Laerm;61365;52.162;4.500;2023-02-15T10:18:10;45.44;37.37;57.94;;
72686;Laerm;61365;52.162;4.500;2023-02-15T10:20:56;45.58;37.36;57.99;;
72686;Laerm;61365;52.162;4.500;2023-02-15T10:26:42;45.59;37.07;58.23;;
72686;Laerm;61365;52.162;4.500;2023-02-15T10:29:36;45.63;37.11;58.80;;
72686;Laerm;61365;52.162;4.500;2023-02-15T10:32:26;45.47;36.99;59.11;;
72686;Laerm;61365;52.162;4.500;2023-02-15T10:35:55;47.18;36.40;58.32;;
72686;Laerm;61365;52.162;4.500;2023-02-15T10:47:09;48.29;36.29;57.79;;
72686;Laerm;61365;52.162;4.500;2023-02-15T10:50:30;48.42;36.24;58.79;;
72686;Laerm;61365;52.162;4.500;2023-02-15T10:53:30;48.47;36.16;57.44;;
72686;Laerm;61365;52.162;4.500;2023-02-15T10:56:24;48.56;36.28;57.77;;
72686;Laerm;61365;52.162;4.500;2023-02-15T10:59:40;48.49;36.18;60.14;;
72686;Laerm;61365;52.162;4.500;2023-02-15T11:02:20;47.51;36.70;59.23;;
72686;Laerm;61365;52.162;4.500;2023-02-15T11:05:20;48.15;36.69;58.41;;
72686;Laerm;61365;52.162;4.500;2023-02-15T11:07:55;47.82;35.93;58.04;;
72686;Laerm;61365;52.162;4.500;2023-02-15T11:13:09;46.35;35.43;58.14;;
72686;Laerm;61365;52.162;4.500;2023-02-15T11:15:56;45.50;37.65;58.16;;
72686;Laerm;61365;52.162;4.500;2023-02-15T11:19:24;45.70;37.22;59.21;;
72686;Laerm;61365;52.162;4.500;2023-02-15T11:22:06;45.57;37.45;58.02;;
72686;Laerm;61365;52.162;4.500;2023-02-15T11:24:42;45.52;37.15;58.60;;
72686;Laerm;61365;52.162;4.500;2023-02-15T11:30:02;47.56;35.44;61.43;;
72686;Laerm;61365;52.162;4.500;2023-02-15T11:32:38;48.79;36.31;57.39;;
72686;Laerm;61365;52.162;4.500;2023-02-15T11:35:20;48.54;36.05;58.53;;
72686;Laerm;61365;52.162;4.500;2023-02-15T11:38:27;45.68;37.37;58.96;;
72686;Laerm;61365;52.162;4.500;2023-02-15T11:41:08;45.74;37.38;58.98;;
72686;Laerm;61365;52.162;4.500;2023-02-15T11:44:00;45.73;36.95;57.49;;
72686;Laerm;61365;52.162;4.500;2023-02-15T11:46:30;45.82;36.81;58.74;;
72686;Laerm;61365;52.162;4.500;2023-02-15T11:48:57;46.73;36.27;58.18;;
72686;Laerm;61365;52.162;4.500;2023-02-15T11:51:25;48.83;36.47;58.08;;
72686;Laerm;61365;52.162;4.500;2023-02-15T11:53:54;49.06;36.26;57.26;;
72686;Laerm;61365;52.162;4.500;2023-02-15T11:56:25;46.29;37.11;59.13;;
72686;Laerm;61365;52.162;4.500;2023-02-15T11:59:00;45.75;37.10;57.61;;
72686;Laerm;61365;52.162;4.500;2023-02-15T12:01:33;45.71;37.48;56.67;;
72686;Laerm;61365;52.162;4.500;2023-02-15T12:04:09;45.78;37.08;57.92;;
72686;Laerm;61365;52.162;4.500;2023-02-15T12:07:02;45.69;36.95;57.21;;
72686;Laerm;61365;52.162;4.500;2023-02-15T12:09:37;45.75;37.40;57.19;;
72686;Laerm;61365;52.162;4.500;2023-02-15T12:12:30;48.82;36.21;57.71;;
72686;Laerm;61365;52.162;4.500;2023-02-15T12:15:03;49.18;36.54;57.27;;
72686;Laerm;61365;52.162;4.500;2023-02-15T12:17:39;49.24;36.29;57.67;;
72686;Laerm;61365;52.162;4.500;2023-02-15T12:20:25;49.30;36.09;57.32;;
72686;Laerm;61365;52.162;4.500;2023-02-15T12:23:14;49.40;36.40;57.94;;
72686;Laerm;61365;52.162;4.500;2023-02-15T12:25:50;47.63;36.06;58.20;;
72686;Laerm;61365;52.162;4.500;2023-02-15T12:28:37;45.96;36.51;59.24;;
72686;Laerm;61365;52.162;4.500;2023-02-15T12:31:36;49.05;36.29;57.14;;
72686;Laerm;61365;52.162;4.500;2023-02-15T12:34:30;47.91;36.01;58.41;;
72686;Laerm;61365;52.162;4.500;2023-02-15T12:37:09;47.87;36.59;56.77;;
72686;Laerm;61365;52.162;4.500;2023-02-15T12:39:36;47.78;36.75;57.66;;
72686;Laerm;61365;52.162;4.500;2023-02-15T12:42:16;47.80;36.22;57.15;;
72686;Laerm;61365;52.162;4.500;2023-02-15T12:44:58;47.86;36.85;56.85;;
72686;Laerm;61365;52.162;4.500;2023-02-15T12:47:25;48.52;35.79;57.24;;
72686;Laerm;61365;52.162;4.500;2023-02-15T12:50:12;47.97;36.97;59.28;;
72686;Laerm;61365;52.162;4.500;2023-02-15T12:52:45;47.88;36.97;57.82;;
72686;Laerm;61365;52.162;4.500;2023-02-15T12:55:24;47.97;34.73;63.29;;
72686;Laerm;61365;52.162;4.500;2023-02-15T12:58:17;47.92;36.69;59.31;;
72686;Laerm;61365;52.162;4.500;2023-02-15T13:00:45;48.96;36.14;57.70;;
72686;Laerm;61365;52.162;4.500;2023-02-15T13:03:21;49.28;35.87;57.46;;
72686;Laerm;61365;52.162;4.500;2023-02-15T13:05:53;47.91;37.09;56.44;;
72686;Laerm;61365;52.162;4.500;2023-02-15T13:08:33;47.88;36.82;56.81;;
72686;Laerm;61365;52.162;4.500;2023-02-15T13:11:10;47.86;36.39;57.23;;
72686;Laerm;61365;52.162;4.500;2023-02-15T13:14:00;47.82;36.91;56.24;;
72686;Laerm;61365;52.162;4.500;2023-02-15T13:16:34;47.97;36.99;57.21;;
72686;Laerm;61365;52.162;4.500;2023-02-15T13:19:12;48.99;35.88;56.58;;
72686;Laerm;61365;52.162;4.500;2023-02-15T13:21:46;49.12;35.59;58.32;;
72686;Laerm;61365;52.162;4.500;2023-02-15T13:24:56;48.19;35.88;58.00;;
72686;Laerm;61365;52.162;4.500;2023-02-15T13:27:41;47.86;37.12;57.33;;
72686;Laerm;61365;52.162;4.500;2023-02-15T13:30:34;47.88;36.69;56.84;;
72686;Laerm;61365;52.162;4.500;2023-02-15T13:33:15;47.98;36.69;57.65;;
72686;Laerm;61365;52.162;4.500;2023-02-15T13:41:19;45.80;36.91;56.94;;
72686;Laerm;61365;52.162;4.500;2023-02-15T13:52:22;45.98;37.56;57.33;;
72686;Laerm;61365;52.162;4.500;2023-02-15T13:55:30;45.84;37.03;56.89;;
72686;Laerm;61365;52.162;4.500;2023-02-15T13:58:16;45.87;37.40;57.23;;
72686;Laerm;61365;52.162;4.500;2023-02-15T14:01:10;47.44;36.70;58.16;;
72686;Laerm;61365;52.162;4.500;2023-02-15T14:13:15;48.97;36.57;57.03;;
72686;Laerm;61365;52.162;4.500;2023-02-15T14:16:06;48.18;36.38;56.48;;
72686;Laerm;61365;52.162;4.500;2023-02-15T14:18:42;47.90;36.76;57.06;;
72686;Laerm;61365;52.162;4.500;2023-02-15T14:21:36;47.92;36.41;60.37;;
72686;Laerm;61365;52.162;4.500;2023-02-15T14:24:28;48.88;36.14;58.57;;
72686;Laerm;61365;52.162;4.500;2023-02-15T14:29:59;49.33;36.65;61.10;;
72686;Laerm;61365;52.162;4.500;2023-02-15T14:32:39;49.33;36.33;57.76;;
72686;Laerm;61365;52.162;4.500;2023-02-15T14:35:18;49.26;36.59;57.48;;
72686;Laerm;61365;52.162;4.500;2023-02-15T14:37:53;48.80;35.11;63.21;;
72686;Laerm;61365;52.162;4.500;2023-02-15T14:40:48;45.89;37.56;58.46;;
72686;Laerm;61365;52.162;4.500;2023-02-15T14:47:21;45.89;36.90;57.68;;
72686;Laerm;61365;52.162;4.500;2023-02-15T14:49:49;45.76;36.72;57.44;;
72686;Laerm;61365;52.162;4.500;2023-02-15T14:52:15;45.75;37.12;57.83;;
72686;Laerm;61365;52.162;4.500;2023-02-15T15:02:29;49.16;36.17;57.03;;
72686;Laerm;61365;52.162;4.500;2023-02-15T15:05:32;49.30;35.67;59.85;;
72686;Laerm;61365;52.162;4.500;2023-02-15T15:08:03;49.45;36.10;61.32;;
72686;Laerm;61365;52.162;4.500;2023-02-15T15:10:40;48.99;36.10;56.82;;
72686;Laerm;61365;52.162;4.500;2023-02-15T15:18:51;49.61;35.58;58.65;;
72686;Laerm;61365;52.162;4.500;2023-02-15T15:35:37;48.85;35.75;57.17;;
72686;Laerm;61365;52.162;4.500;2023-02-15T15:41:19;45.81;36.73;57.65;;
72686;Laerm;61365;52.162;4.500;2023-02-15T15:49:34;45.85;36.59;57.91;;
72686;Laerm;61365;52.162;4.500;2023-02-15T15:52:14;49.13;35.34;60.64;;
72686;Laerm;61365;52.162;4.500;2023-02-15T15:54:43;48.91;35.27;57.68;;
72686;Laerm;61365;52.162;4.500;2023-02-15T15:57:35;48.48;35.54;57.58;;
72686;Laerm;61365;52.162;4.500;2023-02-15T16:00:44;48.99;35.76;57.15;;
72686;Laerm;61365;52.162;4.500;2023-02-15T16:03:22;49.10;36.39;56.97;;
72686;Laerm;61365;52.162;4.500;2023-02-15T16:05:49;48.54;35.84;59.09;;
72686;Laerm;61365;52.162;4.500;2023-02-15T16:08:33;48.57;36.05;56.88;;
72686;Laerm;61365;52.162;4.500;2023-02-15T16:11:11;48.75;35.21;56.47;;
72686;Laerm;61365;52.162;4.500;2023-02-15T16:13:41;48.58;36.27;57.79;;
72686;Laerm;61365;52.162;4.500;2023-02-15T16:16:09;48.60;36.46;57.08;;
72686;Laerm;61365;52.162;4.500;2023-02-15T16:18:45;48.73;36.35;56.75;;
72686;Laerm;61365;52.162;4.500;2023-02-15T16:21:22;48.59;35.39;59.45;;
72686;Laerm;61365;52.162;4.500;2023-02-15T16:26:48;49.10;35.94;57.40;;
72686;Laerm;61365;52.162;4.500;2023-02-15T16:29:29;48.80;35.56;59.01;;
72686;Laerm;61365;52.162;4.500;2023-02-15T16:32:01;47.62;36.70;56.99;;
72686;Laerm;61365;52.162;4.500;2023-02-15T16:34:28;48.80;35.84;57.91;;
72686;Laerm;61365;52.162;4.500;2023-02-15T16:37:21;48.10;36.43;57.37;;
72686;Laerm;61365;52.162;4.500;2023-02-15T16:39:50;48.13;35.55;62.19;;
72686;Laerm;61365;52.162;4.500;2023-02-15T16:42:17;48.43;35.61;57.06;;
72686;Laerm;61365;52.162;4.500;2023-02-15T16:44:57;47.52;36.65;56.73;;
72686;Laerm;61365;52.162;4.500;2023-02-15T16:47:30;47.55;36.72;56.78;;
72686;Laerm;61365;52.162;4.500;2023-02-15T16:50:02;47.74;37.00;56.78;;
72686;Laerm;61365;52.162;4.500;2023-02-15T16:52:30;47.79;36.51;57.86;;
72686;Laerm;61365;52.162;4.500;2023-02-15T16:55:02;48.60;35.83;57.51;;
72686;Laerm;61365;52.162;4.500;2023-02-15T16:57:36;48.36;35.65;57.22;;
72686;Laerm;61365;52.162;4.500;2023-02-15T17:00:20;48.78;35.67;58.11;;
72686;Laerm;61365;52.162;4.500;2023-02-15T17:03:25;48.24;35.76;59.12;;
72686;Laerm;61365;52.162;4.500;2023-02-15T17:05:58;45.84;37.17;58.16;;